Time;durP1;ratioP1;P1;durP2;ratioP2;P2;SDS_P1;SDS_P2;PMS_P1;PMS_P2;Temp;Humidity;BMP_temperature;BMP_pressure;BME280_temperature;BME280_humidity;BME280_pressure;Samples;Min_cycle;Max_cycle;Signal;HPM_P1;HPM_P2
2022/03/30 00:00:15;;;;;;;23.35;10.38;;;4.70;99.90;;;;;;5116443;28;20036;-62
2022/03/30 00:02:40;;;;;;;18.63;10.40;;;4.50;99.90;;;;;;5098776;28;20405;-62
2022/03/30 00:05:07;;;;;;;23.10;11.63;;;;;;;;;;5115503;28;20039;-62
2022/03/30 00:07:33;;;;;;;31.45;13.88;;;;;;;;;;5116820;28;20040;-61
2022/03/30 00:10:03;;;;;;;24.60;11.82;;;4.50;99.90;;;;;;5115836;28;20047;-61
2022/03/30 00:12:29;;;;;;;22.55;11.32;;;;;;;;;;5116526;28;20062;-61
2022/03/30 00:14:56;;;;;;;19.67;10.77;;;;;;;;;;5115206;28;20046;-61
2022/03/30 00:17:21;;;;;;;22.02;11.65;;;;;;;;;;5115325;28;20137;-61
2022/03/30 00:19:48;;;;;;;25.50;11.85;;;;;;;;;;5116625;28;20051;-61
2022/03/30 00:22:14;;;;;;;27.20;11.70;;;;;;;;;;5116122;28;20610;-62
2022/03/30 00:24:43;;;;;;;21.27;10.77;;;;;;;;;;5116130;28;20043;-61
2022/03/30 00:27:09;;;;;;;26.17;11.38;;;;;;;;;;5114930;28;20050;-61
2022/03/30 00:29:35;;;;;;;25.65;12.70;;;;;;;;;;5115094;28;20096;-61
2022/03/30 00:32:01;;;;;;;23.25;12.10;;;;;;;;;;5116189;28;20043;-61
2022/03/30 00:34:27;;;;;;;28.08;11.70;;;;;;;;;;5116222;28;20070;-61
2022/03/30 00:36:53;;;;;;;27.80;13.15;;;;;;;;;;5115854;28;20058;-61
2022/03/30 00:39:19;;;;;;;25.35;12.68;;;;;;;;;;5114977;28;20394;-62
2022/03/30 00:41:45;;;;;;;32.42;12.57;;;;;;;;;;5116192;28;20040;-61
2022/03/30 00:44:12;;;;;;;28.08;11.95;;;4.10;99.90;;;;;;5114772;28;20039;-61
2022/03/30 00:46:41;;;;;;;22.80;12.23;;;4.20;99.90;;;;;;5115103;28;20584;-61
2022/03/30 00:49:08;;;;;;;22.45;11.30;;;;;;;;;;5116046;28;20560;-63
2022/03/30 00:51:34;;;;;;;25.33;11.07;;;;;;;;;;5115943;28;20040;-62
2022/03/30 00:54:00;;;;;;;22.00;10.63;;;;;;;;;;5114340;28;20066;-61
2022/03/30 00:56:28;;;;;;;25.02;11.73;;;3.70;99.90;;;;;;5097312;28;20035;-61
2022/03/30 00:58:54;;;;;;;27.10;13.02;;;3.80;99.90;;;;;;5114405;28;20035;-61
2022/03/30 01:01:21;;;;;;;26.85;12.55;;;3.90;99.90;;;;;;5116068;28;20035;-61
2022/03/30 01:03:47;;;;;;;29.38;12.98;;;;;;;;;;5115053;28;20048;-61
2022/03/30 01:06:13;;;;;;;28.52;12.13;;;;;;;;;;5116223;28;20066;-61
2022/03/30 01:08:39;;;;;;;27.98;12.77;;;;;;;;;;5115678;28;20035;-61
2022/03/30 01:11:05;;;;;;;28.15;12.75;;;;;;;;;;5114592;28;20049;-61
2022/03/30 01:13:33;;;;;;;28.85;13.68;;;4.00;99.90;;;;;;5115666;28;20438;-62
2022/03/30 01:15:59;;;;;;;26.73;12.40;;;;;;;;;;5114083;28;20043;-62
2022/03/30 01:18:25;;;;;;;26.58;13.00;;;;;;;;;;5114120;28;20039;-61
2022/03/30 01:20:51;;;;;;;26.50;12.50;;;;;;;;;;5115472;28;20039;-61
2022/03/30 01:23:17;;;;;;;28.05;13.10;;;;;;;;;;5113699;28;20039;-61
2022/03/30 01:25:43;;;;;;;27.08;12.82;;;;;;;;;;5096836;28;20460;-61
2022/03/30 01:28:09;;;;;;;26.45;12.10;;;;;;;;;;5113760;28;20070;-61
2022/03/30 01:33:20;;;;;;;27.35;13.70;;;;;;;;;;5114795;28;20560;-62
2022/03/30 01:35:46;;;;;;;36.85;13.48;;;;;;;;;;5114560;28;20071;-61
2022/03/30 01:38:13;;;;;;;27.35;14.23;;;;;;;;;;5114724;28;20100;-61
2022/03/30 01:40:39;;;;;;;25.02;13.15;;;4.00;99.90;;;;;;5114684;28;20040;-62
2022/03/30 01:43:05;;;;;;;23.58;11.90;;;3.90;99.90;;;;;;5114946;28;20046;-62
2022/03/30 01:45:31;;;;;;;23.67;12.75;;;;;;;;;;5114713;28;20356;-61
2022/03/30 01:48:22;;;;;;;25.45;13.80;;;;;;;;;;5114695;28;20042;-61
2022/03/30 01:50:48;;;;;;;24.67;12.68;;;;;;;;;;5114772;28;20038;-61
2022/03/30 01:53:14;;;;;;;27.63;13.57;;;;;;;;;;5114300;28;20091;-62
2022/03/30 01:55:40;;;;;;;26.13;12.80;;;;;;;;;;5114454;28;20416;-68
2022/03/30 01:58:07;;;;;;;34.80;16.23;;;;;;;;;;5114368;28;20039;-62
2022/03/30 02:00:33;;;;;;;29.45;13.15;;;;;;;;;;5114249;28;20041;-61
2022/03/30 02:02:59;;;;;;;28.55;12.70;;;3.90;99.90;;;;;;5112998;28;20044;-61
2022/03/30 02:05:25;;;;;;;28.90;12.70;;;;;;;;;;5095918;28;20412;-62
2022/03/30 02:07:51;;;;;;;30.90;13.75;;;;;;;;;;5114472;28;20027;-61
2022/03/30 02:10:17;;;;;;;26.25;13.88;;;4.20;99.90;;;;;;5112156;28;20104;-61
2022/03/30 02:12:42;;;;;;;34.80;15.30;;;4.30;99.90;;;;;;5114011;28;20039;-61
2022/03/30 02:15:10;;;;;;;32.45;14.40;;;4.50;99.90;;;;;;5114219;28;20039;-62
2022/03/30 02:17:37;;;;;;;27.67;13.85;;;;;;;;;;5107640;28;20032;-61
2022/03/30 02:20:03;;;;;;;31.75;14.23;;;;;;;;;;5113234;28;20062;-61
2022/03/30 02:22:29;;;;;;;30.20;14.35;;;;;;;;;;5112646;28;20092;-62
2022/03/30 02:24:55;;;;;;;29.90;14.07;;;4.70;99.90;;;;;;5112903;28;20047;-61
2022/03/30 02:27:22;;;;;;;28.42;14.25;;;;;;;;;;5112884;28;20039;-61
2022/03/30 02:29:53;;;;;;;31.70;13.98;;;4.80;99.90;;;;;;5113921;28;20424;-61
2022/03/30 02:32:19;;;;;;;35.97;14.45;;;;;;;;;;5114018;28;20443;-62
2022/03/30 02:34:45;;;;;;;31.05;14.23;;;4.90;99.90;;;;;;5114094;28;20039;-61
2022/03/30 02:37:13;;;;;;;25.40;13.65;;;4.80;99.90;;;;;;5114225;28;20043;-61
2022/03/30 02:39:39;;;;;;;30.23;14.10;;;;;;;;;;5095819;28;20039;-61
2022/03/30 02:42:06;;;;;;;32.67;14.68;;;;;;;;;;5112458;28;20073;-61
2022/03/30 02:44:32;;;;;;;32.15;13.35;;;;;;;;;;5095196;28;20043;-61
2022/03/30 02:47:00;;;;;;;25.52;13.05;;;;;;;;;;5114305;28;20043;-61
2022/03/30 02:49:26;;;;;;;32.80;14.75;;;;;;;;;;5113798;28;20043;-61
2022/03/30 02:51:52;;;;;;;33.38;14.35;;;;;;;;;;5113755;28;20047;-61
2022/03/30 02:54:18;;;;;;;28.88;13.80;;;;;;;;;;5112524;28;20398;-62
2022/03/30 02:56:45;;;;;;;33.95;14.35;;;;;;;;;;5112582;28;20052;-61
2022/03/30 02:59:11;;;;;;;29.98;13.43;;;;;;;;;;5114103;28;20038;-61
2022/03/30 03:01:37;;;;;;;33.90;14.32;;;;;;;;;;5113740;28;20032;-62
2022/03/30 03:04:03;;;;;;;31.00;15.18;;;;;;;;;;5112678;28;20047;-61
2022/03/30 03:06:29;;;;;;;32.42;13.52;;;;;;;;;;5114097;28;20046;-62
2022/03/30 03:08:55;;;;;;;30.50;13.93;;;5.00;99.90;;;;;;5096064;28;20122;-62
2022/03/30 03:11:20;;;;;;;27.58;14.77;;;5.10;99.90;;;;;;5112646;28;20504;-62
2022/03/30 03:13:46;;;;;;;34.33;14.27;;;5.10;99.90;;;;;;5112391;28;20035;-62
2022/03/30 03:16:15;;;;;;;26.17;15.02;;;5.30;99.90;;;;;;5112544;28;20035;-61
2022/03/30 03:18:40;;;;;;;32.38;14.60;;;5.10;99.90;;;;;;5112891;28;20039;-62
2022/03/30 03:21:06;;;;;;;30.35;14.13;;;;;;;;;;5116325;28;20031;-61
2022/03/30 03:23:32;;;;;;;29.00;13.85;;;;;;;;;;5116772;28;20032;-61
2022/03/30 03:25:58;;;;;;;31.00;14.02;;;;;;;;;;5117748;28;20039;-62
2022/03/30 03:28:24;;;;;;;29.17;15.05;;;;;;;;;;5116179;28;20464;-62
2022/03/30 03:30:50;;;;;;;27.08;14.45;;;5.20;99.90;;;;;;5116727;28;20508;-62
2022/03/30 03:33:17;;;;;;;29.58;14.75;;;;;;;;;;5116735;28;20035;-62
2022/03/30 03:35:44;;;;;;;28.50;13.60;;;;;;;;;;5117011;28;20051;-61
2022/03/30 03:38:10;;;;;;;31.95;15.15;;;;;;;;;;5116513;28;20042;-61
2022/03/30 03:40:36;;;;;;;31.20;15.27;;;;;;;;;;5116362;28;20067;-61
2022/03/30 03:43:03;;;;;;;28.30;14.05;;;5.30;99.90;;;;;;5116949;28;20039;-62
2022/03/30 03:45:29;;;;;;;32.20;14.98;;;;;;;;;;5117997;28;20082;-61
2022/03/30 03:47:56;;;;;;;27.50;13.98;;;5.30;99.90;;;;;;5117780;28;20435;-61
2022/03/30 03:50:22;;;;;;;27.38;14.52;;;;;;;;;;5116068;28;20116;-62
2022/03/30 03:52:49;;;;;;;29.25;14.75;;;;;;;;;;5117393;28;20498;-61
2022/03/30 03:55:15;;;;;;;28.88;14.27;;;5.40;99.90;;;;;;5116749;28;20048;-62
2022/03/30 03:57:41;;;;;;;32.42;14.40;;;;;;;;;;5116720;28;20393;-61
2022/03/30 04:00:08;;;;;;;35.05;15.50;;;;;;;;;;5116070;28;20036;-61
2022/03/30 04:02:34;;;;;;;29.63;14.25;;;5.50;99.90;;;;;;5115849;28;20393;-62
2022/03/30 04:05:00;;;;;;;33.92;15.85;;;;;;;;;;5116800;28;20035;-62
2022/03/30 04:07:26;;;;;;;27.73;13.82;;;;;;;;;;5117049;28;20039;-62
2022/03/30 04:09:51;;;;;;;32.33;14.23;;;5.40;99.90;;;;;;5117577;28;20044;-62
2022/03/30 04:12:17;;;;;;;27.58;14.80;;;5.30;99.90;;;;;;5116485;28;20049;-61
2022/03/30 04:14:43;;;;;;;33.53;14.25;;;;;;;;;;5098492;28;20043;-61
2022/03/30 04:17:09;;;;;;;28.60;13.55;;;;;;;;;;5115606;28;20545;-61
2022/03/30 04:19:35;;;;;;;31.52;14.15;;;;;;;;;;5115533;28;20055;-62
2022/03/30 04:22:01;;;;;;;27.27;13.75;;;;;;;;;;5116364;28;20123;-61
2022/03/30 04:24:28;;;;;;;25.90;14.02;;;5.70;99.90;;;;;;5116438;28;20043;-61
2022/03/30 04:26:54;;;;;;;29.38;14.98;;;;;;;;;;5115676;28;20085;-62
2022/03/30 04:29:20;;;;;;;33.17;14.63;;;;;;;;;;5115583;28;20401;-62
2022/03/30 04:31:46;;;;;;;31.75;14.73;;;;;;;;;;5099506;28;20503;-61
2022/03/30 04:34:12;;;;;;;33.40;15.30;;;;;;;;;;5096869;28;20076;-61
2022/03/30 04:36:38;;;;;;;32.50;14.88;;;;;;;;;;5095963;28;20059;-61
2022/03/30 04:39:04;;;;;;;34.90;14.93;;;5.70;99.90;;;;;;5095809;28;20078;-61
2022/03/30 04:41:30;;;;;;;36.08;15.20;;;;;;;;;;5095753;28;20428;-62
2022/03/30 04:43:56;;;;;;;22.77;11.32;;;;;;;;;;5096039;28;20085;-61
2022/03/30 04:46:22;;;;;;;23.85;10.68;;;5.80;99.90;;;;;;5092925;28;20059;-61
2022/03/30 04:48:47;;;;;;;8.15;4.70;;;5.70;99.90;;;;;;5095290;28;20039;-62
2022/03/30 04:51:13;;;;;;;5.90;3.08;;;5.80;99.90;;;;;;5095997;28;20039;-61
2022/03/30 04:53:39;;;;;;;3.72;2.40;;;5.70;99.90;;;;;;5108659;28;20044;-62
2022/03/30 04:56:05;;;;;;;5.05;2.35;;;6.10;99.90;;;;;;5093993;28;20455;-61
2022/03/30 04:58:31;;;;;;;3.78;1.80;;;5.80;99.90;;;;;;5096699;28;20367;-61
2022/03/30 05:00:57;;;;;;;2.63;1.40;;;;;;;;;;5095075;28;20036;-62
2022/03/30 05:03:23;;;;;;;2.53;1.30;;;;;;;;;;5097391;28;20044;-62
2022/03/30 05:05:49;;;;;;;3.38;1.33;;;;;;;;;;5094575;28;20046;-60
2022/03/30 05:08:14;;;;;;;2.33;1.48;;;5.70;99.90;;;;;;5095579;28;20075;-62
2022/03/30 05:10:41;;;;;;;1.70;0.98;;;;;;;;;;5092919;28;20120;-62
2022/03/30 05:13:07;;;;;;;1.80;1.20;;;5.70;99.90;;;;;;5094445;28;20040;-62
2022/03/30 05:15:32;;;;;;;4.10;1.20;;;5.70;99.90;;;;;;5092766;28;20040;-62
2022/03/30 05:17:59;;;;;;;1.95;1.27;;;5.70;99.90;;;;;;5096945;28;20125;-63
2022/03/30 05:20:25;;;;;;;1.55;1.15;;;;;;;;;;5109694;28;20075;-62
2022/03/30 05:22:51;;;;;;;2.90;1.52;;;5.70;99.90;;;;;;5094267;28;20508;-63
2022/03/30 05:25:19;;;;;;;3.40;1.20;;;5.50;99.90;;;;;;5094255;28;20042;-63
2022/03/30 05:27:45;;;;;;;2.55;1.20;;;5.70;99.90;;;;;;5094835;28;20068;-63
2022/03/30 05:30:11;;;;;;;2.75;1.35;;;5.60;99.90;;;;;;5093882;28;20067;-63
2022/03/30 05:32:37;;;;;;;1.80;1.20;;;;;;;;;;5095125;28;20032;-63
2022/03/30 05:35:04;;;;;;;1.25;1.15;;;5.70;99.90;;;;;;5097024;28;20507;-63
2022/03/30 05:37:31;;;;;;;2.97;1.10;;;5.80;99.90;;;;;;5104976;28;20042;-62
2022/03/30 05:39:57;;;;;;;1.58;1.10;;;;;;;;;;5093867;28;20032;-63
2022/03/30 05:42:23;;;;;;;2.28;1.10;;;;;;;;;;5107943;28;20122;-62
2022/03/30 05:44:49;;;;;;;1.20;1.10;;;5.70;99.90;;;;;;5094230;28;20115;-63
2022/03/30 05:47:16;;;;;;;2.90;1.40;;;5.70;99.90;;;;;;5093028;28;20036;-62
2022/03/30 05:49:42;;;;;;;4.35;1.50;;;5.70;99.90;;;;;;5092652;28;20036;-61
2022/03/30 05:52:08;;;;;;;3.10;2.63;;;5.70;99.90;;;;;;5096748;28;20131;-61
2022/03/30 05:54:35;;;;;;;5.00;1.38;;;5.60;99.90;;;;;;5093120;28;20056;-61
2022/03/30 05:57:00;;;;;;;1.45;1.35;;;5.50;99.90;;;;;;5094537;28;20394;-61
2022/03/30 05:59:31;;;;;;;2.80;1.52;;;5.50;99.90;;;;;;5108909;28;20050;-61
2022/03/30 06:01:58;;;;;;;6.20;2.85;;;5.50;99.90;;;;;;5114328;28;20450;-61
2022/03/30 06:04:26;;;;;;;2.17;1.65;;;5.50;99.90;;;;;;5097077;28;20048;-61
2022/03/30 06:06:52;;;;;;;1.77;1.67;;;;;;;;;;5091742;28;20044;-61
2022/03/30 06:09:18;;;;;;;1.70;1.33;;;5.50;99.90;;;;;;5094751;28;20402;-62
2022/03/30 06:11:44;;;;;;;3.50;1.15;;;5.50;99.90;;;;;;5092627;28;20048;-61
2022/03/30 06:14:10;;;;;;;1.92;1.52;;;;;;;;;;5093070;28;20452;-61
2022/03/30 06:16:37;;;;;;;1.83;1.67;;;5.50;99.90;;;;;;5095819;28;20035;-61
2022/03/30 06:19:03;;;;;;;1.42;1.33;;;5.40;99.90;;;;;;5093178;28;20044;-61
2022/03/30 06:21:30;;;;;;;4.15;1.27;;;;;;;;;;5094111;28;20032;-61
2022/03/30 06:23:58;;;;;;;2.05;1.27;;;5.50;99.90;;;;;;5096343;28;20409;-62
2022/03/30 06:26:25;;;;;;;1.83;1.67;;;;;;;;;;5094262;28;20652;-62
2022/03/30 06:28:51;;;;;;;1.55;1.23;;;;;;;;;;5093318;27;20145;-62
2022/03/30 06:31:17;;;;;;;2.13;1.20;;;;;;;;;;5091595;28;20113;-62
2022/03/30 06:33:47;;;;;;;3.65;1.50;;;6.30;99.90;;;;;;5092091;28;20044;-62
2022/03/30 06:36:14;;;;;;;3.03;1.50;;;;;;;;;;5095451;28;20040;-62
2022/03/30 06:38:41;;;;;;;1.92;1.50;;;;;;;;;;5094542;28;20044;-62
2022/03/30 06:41:07;;;;;;;1.98;1.52;;;;;;;;;;5096722;28;20054;-62
2022/03/30 06:43:34;;;;;;;2.10;1.58;;;;;;;;;;5094196;28;20497;-62
2022/03/30 06:46:00;;;;;;;1.92;1.55;;;;;;;;;;5094973;28;20058;-62
2022/03/30 06:48:26;;;;;;;4.28;1.70;;;6.80;99.90;;;;;;5096501;28;20051;-62
2022/03/30 06:50:52;;;;;;;3.20;1.88;;;6.80;99.90;;;;;;5095294;28;20042;-62
2022/03/30 06:53:18;;;;;;;2.92;1.50;;;;;;;;;;5094402;28;20897;-62
2022/03/30 06:55:44;;;;;;;3.45;1.83;;;;;;;;;;5096626;28;20062;-62
2022/03/30 06:58:10;;;;;;;3.42;1.95;;;;;;;;;;5098781;28;20047;-62
2022/03/30 07:00:36;;;;;;;2.22;1.65;;;;;;;;;;5080944;28;20107;-62
2022/03/30 07:03:02;;;;;;;5.30;2.88;;;;;;;;;;5098340;28;20430;-62
2022/03/30 07:05:28;;;;;;;5.13;1.98;;;;;;;;;;5098659;28;20104;-62
2022/03/30 07:10:39;;;;;;;3.97;1.85;;;;;;;;;;5097146;27;20103;-62
2022/03/30 07:13:06;;;;;;;5.22;2.45;;;;;;;;;;5099315;27;20047;-62
2022/03/30 07:15:32;;;;;;;3.15;1.55;;;;;;;;;;5097862;28;20134;-62
2022/03/30 07:17:59;;;;;;;2.42;1.80;;;;;;;;;;5098916;28;20050;-62
2022/03/30 07:20:26;;;;;;;4.35;2.22;;;;;;;;;;5098601;27;20051;-63
2022/03/30 07:22:52;;;;;;;5.05;1.85;;;;;;;;;;5099304;27;20170;-63
2022/03/30 07:25:20;;;;;;;3.92;1.92;;;8.20;99.90;;;;;;5099327;28;20389;-63
2022/03/30 07:27:49;;;;;;;6.60;2.17;;;8.40;99.90;;;;;;5099529;28;20054;-63
2022/03/30 07:30:15;;;;;;;2.72;1.70;;;;;;;;;;5100049;28;20694;-63
2022/03/30 07:32:43;;;;;;;4.63;1.77;;;;;;;;;;5100238;27;20043;-63
2022/03/30 07:35:10;;;;;;;3.45;2.22;;;;;;;;;;5098707;28;20474;-64
2022/03/30 07:37:36;;;;;;;4.30;1.75;;;;;;;;;;5097186;28;20051;-62
2022/03/30 07:40:03;;;;;;;6.28;2.00;;;;;;;;;;5097671;28;20042;-63
2022/03/30 07:42:29;;;;;;;3.38;2.10;;;;;;;;;;5099005;28;20464;-64
2022/03/30 07:44:55;;;;;;;4.10;1.73;;;;;;;;;;5095609;28;20135;-64
2022/03/30 07:47:21;;;;;;;3.28;1.95;;;;;;;;;;5095610;28;20047;-64
2022/03/30 07:49:48;;;;;;;5.97;1.75;;;;;;;;;;5095889;28;20039;-63
2022/03/30 07:52:14;;;;;;;4.20;1.90;;;;;;;;;;5094915;27;20518;-62
2022/03/30 07:54:41;;;;;;;6.78;2.10;;;;;;;;;;5095448;28;20069;-63
2022/03/30 07:57:07;;;;;;;3.03;1.50;;;;;;;;;;5079833;28;20071;-63
2022/03/30 07:59:33;;;;;;;5.07;1.80;;;;;;;;;;5096136;28;20048;-64
2022/03/30 08:01:59;;;;;;;4.10;2.40;;;;;;;;;;5096168;28;20043;-64
2022/03/30 08:04:25;;;;;;;4.47;1.73;;;;;;;;;;5094928;28;20516;-65
2022/03/30 08:06:52;;;;;;;3.03;1.90;;;;;;;;;;5093343;28;20039;-64
2022/03/30 08:09:18;;;;;;;5.10;1.75;;;;;;;;;;5096396;28;20051;-63
2022/03/30 08:11:44;;;;;;;2.97;1.65;;;;;;;;;;5095429;28;20569;-64
2022/03/30 08:14:11;;;;;;;5.70;1.95;;;;;;;;;;5095815;28;20047;-65
2022/03/30 08:16:37;;;;;;;5.20;1.95;;;;;;;;;;5093715;27;20078;-63
2022/03/30 08:19:03;;;;;;;3.38;1.67;;;;;;;;;;5092971;28;20052;-64
2022/03/30 08:24:14;;;;;;;7.45;1.85;;;;;;;;;;5096862;27;20050;-63
2022/03/30 08:26:41;;;;;;;4.95;1.83;;;;;;;;;;5097484;27;20043;-63
2022/03/30 08:29:08;;;;;;;4.75;1.98;;;;;;;;;;5094819;28;20999;-65
2022/03/30 08:31:34;;;;;;;4.38;1.65;;;;;;;;;;5093921;28;20040;-65
2022/03/30 08:34:00;;;;;;;5.25;1.75;;;;;;;;;;5095769;28;20044;-63
2022/03/30 08:36:29;;;;;;;6.05;1.85;;;;;;;;;;5094879;28;20043;-65
2022/03/30 08:38:59;;;;;;;5.15;1.90;;;8.00;99.90;;;;;;5095698;27;20130;-59
2022/03/30 08:41:25;;;;;;;6.55;1.48;;;;;;;;;;5092989;28;20039;-61
2022/03/30 08:43:52;;;;;;;5.90;2.08;;;;;;;;;;5092235;28;20036;-63
2022/03/30 08:46:18;;;;;;;3.22;1.75;;;;;;;;;;5093453;28;20078;-61
2022/03/30 08:48:44;;;;;;;6.30;1.50;;;;;;;;;;5096705;27;20579;-62
2022/03/30 08:51:11;;;;;;;3.67;1.35;;;;;;;;;;5096152;28;21684;-61
2022/03/30 08:53:37;;;;;;;5.13;1.83;;;8.80;99.90;;;;;;5098052;27;20128;-61
2022/03/30 08:56:03;;;;;;;4.47;2.03;;;9.10;99.90;;;;;;5095078;28;20525;-61
2022/03/30 08:58:29;;;;;;;6.03;1.50;;;;;;;;;;5096311;28;20558;-62
2022/03/30 09:01:06;;;;;;;5.45;1.98;;;;;;;;;;5096613;28;20039;-62
2022/03/30 09:03:32;;;;;;;6.30;1.42;;;;;;;;;;5089464;28;20048;-63
2022/03/30 09:05:58;;;;;;;4.93;1.65;;;;;;;;;;5093668;28;20057;-62
2022/03/30 09:08:27;;;;;;;3.58;1.60;;;;;;;;;;5097852;28;20085;-61
2022/03/30 09:10:56;;;;;;;5.03;1.77;;;9.50;99.90;;;;;;5097327;28;20082;-61
2022/03/30 09:13:22;;;;;;;3.60;1.50;;;;;;;;;;5097608;28;20051;-61
2022/03/30 09:15:51;;;;;;;4.85;1.52;;;9.30;99.90;;;;;;5097663;28;20054;-61
2022/03/30 09:18:17;;;;;;;4.35;1.52;;;9.20;99.90;;;;;;5096122;28;20047;-62
2022/03/30 09:20:48;;;;;;;5.70;2.45;;;;;;;;;;5097681;28;20416;-64
2022/03/30 09:23:15;;;;;;;5.63;1.70;;;9.10;99.90;;;;;;5100011;28;20058;-62
2022/03/30 09:25:49;;;;;;;1.70;1.30;;;9.10;99.90;;;;;;5098881;28;20040;-62
2022/03/30 09:28:17;;;;;;;5.50;1.48;;;;;;;;;;5099588;28;20054;-62
2022/03/30 09:30:44;;;;;;;8.70;1.75;;;8.90;99.90;;;;;;5099779;28;20086;-62
2022/03/30 09:33:11;;;;;;;3.42;1.40;;;;;;;;;;5102111;28;20039;-62
2022/03/30 09:35:38;;;;;;;3.35;1.55;;;8.70;99.90;;;;;;5101583;28;20036;-62
2022/03/30 09:38:08;;;;;;;4.38;1.55;;;;;;;;;;5100431;28;20461;-62
2022/03/30 09:40:58;;;;;;;5.68;1.88;;;8.90;99.90;;;;;;5101650;28;21058;-62
2022/03/30 09:43:28;;;;;;;4.15;1.80;;;;;;;;;;5099729;28;20051;-62
2022/03/30 09:46:11;;;;;;;3.17;1.20;;;;;;;;;;5099388;28;20039;-62
2022/03/30 09:48:49;;;;;;;5.47;1.40;;;8.90;99.90;;;;;;5098503;28;20051;-62
2022/03/30 09:51:16;;;;;;;7.50;1.70;;;9.00;99.90;;;;;;5099023;28;20047;-62
2022/03/30 09:53:43;;;;;;;5.35;1.30;;;;;;;;;;5097630;28;20039;-62
2022/03/30 09:56:14;;;;;;;5.10;1.40;;;;;;;;;;5097129;27;20074;-61
2022/03/30 09:58:41;;;;;;;3.50;1.48;;;;;;;;;;5094848;28;20048;-63
2022/03/30 10:01:35;;;;;;;5.63;1.63;;;;;;;;;;5096131;28;20048;-60
2022/03/30 10:04:04;;;;;;;3.03;1.70;;;;;;;;;;5100356;28;20049;-61
2022/03/30 10:06:44;;;;;;;4.35;1.40;;;;;;;;;;5101596;28;20062;-61
2022/03/30 10:09:11;;;;;;;2.13;1.20;;;;;;;;;;5101191;28;20078;-60
2022/03/30 10:11:39;;;;;;;7.70;1.67;;;;;;;;;;5079223;28;20382;-62
2022/03/30 10:14:12;;;;;;;3.85;1.52;;;10.30;99.90;;;;;;5096525;28;20054;-63
2022/03/30 10:16:59;;;;;;;3.50;1.45;;;;;;;;;;5094174;28;20113;-62
2022/03/30 10:19:25;;;;;;;4.90;1.13;;;;;;;;;;5097003;28;20039;-63
2022/03/30 10:22:49;;;;;;;3.40;1.52;;;10.00;99.90;;;;;;5095554;28;20036;-63
2022/03/30 10:25:50;;;;;;;4.95;1.60;;;9.90;99.90;;;;;;5095047;28;21571;-63
2022/03/30 10:28:25;;;;;;;4.70;1.20;;;10.10;99.90;;;;;;5095571;28;20513;-63
2022/03/30 10:30:53;;;;;;;3.35;1.23;;;9.70;99.90;;;;;;5094895;28;20082;-63
2022/03/30 10:33:44;;;;;;;2.88;1.20;;;10.00;99.90;;;;;;5095496;28;20054;-63
2022/03/30 10:36:20;;;;;;;4.53;1.40;;;;;;;;;;5095387;28;20052;-63
2022/03/30 10:39:14;;;;;;;4.60;1.35;;;9.60;99.90;;;;;;5094565;28;20043;-63
2022/03/30 10:42:10;;;;;;;2.90;1.00;;;9.90;99.90;;;;;;5094572;28;20409;-63
2022/03/30 10:44:37;;;;;;;2.45;1.05;;;9.50;99.90;;;;;;5085309;28;20425;-63
2022/03/30 10:47:23;;;;;;;4.40;1.40;;;9.90;99.90;;;;;;5094217;28;20101;-63
2022/03/30 10:49:56;;;;;;;2.58;1.02;;;9.70;99.90;;;;;;5096123;28;20112;-63
2022/03/30 10:52:41;;;;;;;4.45;1.25;;;;;;;;;;5095349;28;20050;-63
2022/03/30 10:55:12;;;;;;;6.38;1.65;;;9.70;99.90;;;;;;5072621;28;20055;-63
2022/03/30 10:58:01;;;;;;;6.93;1.33;;;9.80;99.90;;;;;;5073254;28;20260;-63
2022/03/30 11:00:37;;;;;;;1.85;0.90;;;;;;;;;;5073199;28;20059;-63
2022/03/30 11:03:25;;;;;;;2.53;1.20;;;9.70;99.90;;;;;;5074765;28;21352;-62
2022/03/30 11:06:05;;;;;;;4.15;1.20;;;9.60;99.90;;;;;;5073923;28;20062;-62
2022/03/30 11:08:33;;;;;;;5.35;1.63;;;9.80;99.90;;;;;;5074781;28;20044;-62
2022/03/30 11:11:20;;;;;;;6.88;1.42;;;;;;;;;;5076291;28;20513;-63
2022/03/30 11:13:46;;;;;;;2.80;1.05;;;;;;;;;;5073047;28;20048;-62
2022/03/30 11:16:13;;;;;;;4.30;1.30;;;;;;;;;;5073231;28;20044;-62
2022/03/30 11:19:02;;;;;;;9.55;1.40;;;9.80;99.90;;;;;;5074694;28;20501;-62
2022/03/30 11:21:28;;;;;;;2.50;1.15;;;;;;;;;;5073401;28;20048;-62
2022/03/30 11:23:55;;;;;;;4.07;1.20;;;;;;;;;;5075613;28;20047;-62
2022/03/30 11:26:23;;;;;;;4.28;1.10;;;9.70;99.90;;;;;;5073778;28;20066;-62
2022/03/30 11:28:49;;;;;;;5.93;1.38;;;;;;;;;;5074655;28;20055;-62
2022/03/30 11:31:22;;;;;;;2.20;1.02;;;10.00;99.90;;;;;;5073872;28;20055;-62
2022/03/30 11:34:07;;;;;;;3.78;1.10;;;;;;;;;;5073209;28;20062;-62
2022/03/30 11:36:33;;;;;;;2.47;0.90;;;;;;;;;;5072307;28;20036;-62
2022/03/30 11:39:02;;;;;;;5.28;1.40;;;9.60;99.90;;;;;;5071360;28;20796;-62
2022/03/30 11:41:29;;;;;;;2.33;1.30;;;;;;;;;;5071109;28;20575;-62
2022/03/30 11:46:40;;;;;;;3.17;0.93;;;;;;;;;;5072235;28;20063;-62
2022/03/30 11:49:06;;;;;;;4.13;1.00;;;;;;;;;;5075394;28;20044;-62
2022/03/30 11:51:32;;;;;;;5.82;1.20;;;;;;;;;;5073558;28;20108;-62
2022/03/30 11:54:16;;;;;;;2.92;1.05;;;;;;;;;;5086873;28;20585;-61
2022/03/30 11:56:42;;;;;;;3.38;1.25;;;;;;;;;;5094291;28;20128;-62
2022/03/30 11:59:08;;;;;;;3.00;1.30;;;;;;;;;;5094389;27;20390;-62
2022/03/30 12:01:35;;;;;;;5.35;1.20;;;;;;;;;;5095294;28;20047;-62
2022/03/30 12:04:01;;;;;;;4.60;1.48;;;;;;;;;;5094913;28;20580;-62
2022/03/30 12:06:27;;;;;;;3.13;0.95;;;;;;;;;;5095498;28;20043;-62
2022/03/30 12:08:54;;;;;;;4.43;1.40;;;;;;;;;;5091250;28;20048;-62
2022/03/30 12:11:20;;;;;;;7.03;1.52;;;;;;;;;;5089954;28;20079;-62
2022/03/30 12:13:57;;;;;;;2.90;1.20;;;;;;;;;;5091330;28;20039;-62
2022/03/30 12:16:24;;;;;;;2.30;1.33;;;9.60;99.90;;;;;;5095069;28;20039;-62
2022/03/30 12:18:52;;;;;;;2.47;1.30;;;9.20;99.90;;;;;;5094488;28;20040;-62
2022/03/30 12:21:20;;;;;;;6.53;1.83;;;9.60;99.90;;;;;;5093013;28;20051;-62
2022/03/30 12:23:56;;;;;;;3.25;1.90;;;9.60;99.90;;;;;;5092884;28;20075;-61
2022/03/30 12:26:23;;;;;;;3.50;1.60;;;;;;;;;;5094818;27;20054;-62
2022/03/30 12:28:49;;;;;;;4.80;1.38;;;;;;;;;;5075531;28;20394;-62
2022/03/30 12:31:15;;;;;;;5.32;1.95;;;;;;;;;;5092879;27;20616;-62
2022/03/30 12:33:45;;;;;;;5.18;1.60;;;;;;;;;;5094374;28;20043;-62
2022/03/30 12:36:18;;;;;;;6.05;1.80;;;;;;;;;;5094204;28;20134;-62
2022/03/30 12:38:45;;;;;;;7.13;1.27;;;;;;;;;;5093479;27;20046;-62
2022/03/30 12:41:11;;;;;;;4.20;1.50;;;;;;;;;;5092949;28;20075;-62
2022/03/30 12:43:39;;;;;;;3.72;1.52;;;;;;;;;;5095508;28;20429;-62
2022/03/30 12:46:14;;;;;;;3.22;1.42;;;9.10;99.90;;;;;;5095921;28;20047;-62
2022/03/30 12:48:41;;;;;;;2.50;1.27;;;;;;;;;;5094881;28;20170;-61
2022/03/30 12:51:17;;;;;;;3.45;1.40;;;;;;;;;;5093936;28;20056;-61
2022/03/30 12:53:45;;;;;;;6.47;1.20;;;;;;;;;;5092581;28;20093;-62
2022/03/30 12:56:17;;;;;;;3.92;1.63;;;9.30;99.90;;;;;;5094974;27;20489;-62
2022/03/30 12:58:53;;;;;;;3.58;1.50;;;9.30;99.90;;;;;;5093309;27;20138;-63
2022/03/30 13:01:39;;;;;;;5.57;1.42;;;;;;;;;;5094910;28;20036;-62
2022/03/30 13:04:22;;;;;;;4.28;1.67;;;;;;;;;;5090618;28;20163;-63
2022/03/30 13:07:11;;;;;;;5.90;1.52;;;9.90;99.90;;;;;;5094891;28;20182;-63
2022/03/30 13:09:38;;;;;;;4.50;1.02;;;9.60;99.90;;;;;;5092833;28;20134;-63
2022/03/30 13:12:06;;;;;;;4.47;1.30;;;;;;;;;;5093445;28;20505;-64
2022/03/30 13:14:32;;;;;;;8.13;1.67;;;;;;;;;;5096822;28;20058;-64
2022/03/30 13:17:10;;;;;;;5.82;1.55;;;;;;;;;;5093951;28;20043;-64
2022/03/30 13:19:36;;;;;;;5.80;1.23;;;;;;;;;;5096413;28;20048;-66
2022/03/30 13:22:05;;;;;;;4.72;1.50;;;;;;;;;;5095232;28;20133;-65
2022/03/30 13:24:31;;;;;;;5.25;1.70;;;9.30;99.90;;;;;;5097088;28;20457;-65
2022/03/30 13:26:57;;;;;;;5.53;1.42;;;;;;;;;;5095022;28;20047;-64
2022/03/30 13:29:23;;;;;;;5.93;1.13;;;;;;;;;;5095649;27;20509;-64
2022/03/30 13:31:50;;;;;;;4.57;1.52;;;;;;;;;;5076626;28;20052;-64
2022/03/30 13:34:18;;;;;;;4.30;1.23;;;;;;;;;;5096448;28;20050;-64
2022/03/30 13:36:44;;;;;;;5.10;1.45;;;;;;;;;;5094697;28;20062;-65
2022/03/30 13:39:11;;;;;;;4.60;1.45;;;9.00;99.90;;;;;;5077131;28;20085;-65
2022/03/30 13:41:37;;;;;;;5.07;1.40;;;;;;;;;;5093590;27;20152;-65
2022/03/30 13:44:04;;;;;;;3.42;1.35;;;;;;;;;;5091983;28;20051;-64
2022/03/30 13:46:30;;;;;;;7.82;1.55;;;;;;;;;;5091737;28;20584;-65
2022/03/30 13:48:57;;;;;;;3.03;1.55;;;;;;;;;;5089469;28;20512;-66
2022/03/30 13:51:23;;;;;;;1.70;1.00;;;9.20;99.90;;;;;;5090342;27;20078;-63
2022/03/30 13:53:49;;;;;;;6.03;1.40;;;;;;;;;;5096059;28;20080;-66
2022/03/30 13:56:17;;;;;;;9.18;1.45;;;9.30;99.90;;;;;;5094728;28;20527;-64
2022/03/30 13:58:44;;;;;;;6.97;1.77;;;;;;;;;;5094348;28;20120;-64
2022/03/30 14:01:10;;;;;;;5.82;1.48;;;;;;;;;;5093136;28;20063;-65
2022/03/30 14:03:36;;;;;;;5.20;1.30;;;;;;;;;;5093383;28;20054;-64
2022/03/30 14:06:02;;;;;;;2.55;1.35;;;10.00;99.90;;;;;;5096143;28;20047;-63
2022/03/30 14:08:28;;;;;;;3.60;1.20;;;9.90;99.90;;;;;;5094155;28;20810;-63
2022/03/30 14:10:54;;;;;;;2.42;1.13;;;;;;;;;;5095319;28;21018;-64
2022/03/30 14:13:21;;;;;;;2.88;1.10;;;;;;;;;;5093241;28;20489;-66